createdAt,value
2022-11-26T00:02:38.943Z,20.70
2022-11-26T00:08:40.820Z,23.90
2022-11-26T00:14:42.961Z,24.42
2022-11-26T00:20:46.027Z,22.45
2022-11-26T00:26:47.950Z,23.02
2022-11-26T00:32:50.002Z,25.65
2022-11-26T00:39:06.015Z,24.23
2022-11-26T00:45:25.262Z,21.80
2022-11-26T00:51:28.496Z,23.92
2022-11-26T00:57:30.429Z,26.75
2022-11-26T01:03:32.364Z,22.50
2022-11-26T01:09:36.792Z,24.08
2022-11-26T01:15:38.669Z,22.92
2022-11-26T01:21:40.721Z,25.13
2022-11-26T01:27:42.579Z,24.08
2022-11-26T01:33:46.485Z,23.30
2022-11-26T01:39:48.343Z,22.35
2022-11-26T01:45:52.934Z,20.90
2022-11-26T01:52:04.021Z,24.45
2022-11-26T01:58:10.018Z,23.90
2022-11-26T02:04:28.246Z,25.13
2022-11-26T02:10:30.101Z,25.25
2022-11-26T02:16:40.880Z,24.75
2022-11-26T02:23:01.647Z,22.33
2022-11-26T02:29:45.846Z,23.90
2022-11-26T02:35:55.121Z,23.73
2022-11-26T02:42:02.459Z,26.35
2022-11-26T02:48:10.345Z,26.15
2022-11-26T03:00:20.009Z,21.80
2022-11-26T03:06:23.082Z,23.00
2022-11-26T03:12:26.673Z,21.20
2022-11-26T03:18:32.477Z,22.50
2022-11-26T03:24:35.989Z,22.52
2022-11-26T03:30:41.865Z,23.25
2022-11-26T03:36:44.242Z,23.30
2022-11-26T03:42:55.565Z,22.20
2022-11-26T03:49:02.013Z,20.05
2022-11-26T03:55:04.300Z,24.10
2022-11-26T04:01:13.739Z,24.35
2022-11-26T04:07:16.904Z,21.38
2022-11-26T04:13:19.570Z,20.35
2022-11-26T04:19:22.327Z,19.77
2022-11-26T04:25:24.415Z,18.65
2022-11-26T04:31:27.409Z,19.33
2022-11-26T04:37:29.851Z,17.63
2022-11-26T04:43:35.655Z,17.20
2022-11-26T04:49:37.977Z,15.07
2022-11-26T04:55:40.430Z,16.33
2022-11-26T05:01:43.040Z,13.75
2022-11-26T05:07:45.867Z,14.45
2022-11-26T05:13:48.535Z,14.35
2022-11-26T05:19:50.609Z,13.13
2022-11-26T05:25:52.911Z,13.25
2022-11-26T05:31:57.311Z,12.18
2022-11-26T05:37:59.886Z,11.73
2022-11-26T05:44:02.086Z,11.00
2022-11-26T05:50:04.944Z,11.88
2022-11-26T05:56:07.698Z,16.65
2022-11-26T06:02:09.923Z,12.95
2022-11-26T06:08:12.621Z,10.40
2022-11-26T06:14:15.912Z,12.80
2022-11-26T06:20:18.955Z,12.82
2022-11-26T06:26:21.315Z,15.65
2022-11-26T06:32:23.487Z,16.98
2022-11-26T06:38:25.529Z,17.40
2022-11-26T06:44:27.757Z,16.23
2022-11-26T06:50:30.055Z,16.58
2022-11-26T06:56:32.244Z,18.60
2022-11-26T07:02:34.872Z,19.75
2022-11-26T07:08:37.294Z,20.20
2022-11-26T07:14:40.067Z,21.25
2022-11-26T07:20:42.720Z,22.65
2022-11-26T07:26:45.209Z,22.55
2022-11-26T07:32:47.986Z,23.38
2022-11-26T07:39:00.099Z,22.83
2022-11-26T07:45:02.401Z,21.52
2022-11-26T07:51:04.645Z,21.25
2022-11-26T07:57:07.100Z,19.30
2022-11-26T08:03:09.651Z,22.27
2022-11-26T08:09:12.259Z,35.38
2022-11-26T08:15:14.564Z,24.27
2022-11-26T08:21:16.859Z,20.95
2022-11-26T08:27:19.479Z,21.40
2022-11-26T08:33:21.565Z,21.08
2022-11-26T08:39:23.705Z,21.08
2022-11-26T08:45:25.791Z,23.30
2022-11-26T08:51:27.660Z,24.58
2022-11-26T08:57:29.744Z,25.17
2022-11-26T09:03:32.396Z,22.63
2022-11-26T09:09:34.312Z,22.63
2022-11-26T09:15:37.471Z,21.30
2022-11-26T09:21:39.431Z,18.83
2022-11-26T09:27:41.295Z,16.42
2022-11-26T09:33:43.852Z,14.15
2022-11-26T09:39:45.726Z,13.48
2022-11-26T09:45:53.360Z,12.55
2022-11-26T09:51:59.266Z,11.98
2022-11-26T09:58:09.475Z,10.88
2022-11-26T10:04:23.352Z,10.77
2022-11-26T10:10:46.861Z,9.65
2022-11-26T10:17:12.265Z,10.07
2022-11-26T10:23:14.033Z,9.60
2022-11-26T10:29:27.807Z,9.85
2022-11-26T10:35:30.050Z,10.05
2022-11-26T10:41:35.279Z,9.63
2022-11-26T10:47:37.157Z,9.73
2022-11-26T10:54:04.306Z,10.13
2022-11-26T11:00:07.220Z,11.70
2022-11-26T11:06:21.134Z,11.35
2022-11-26T11:12:24.107Z,11.43
2022-11-26T11:18:26.193Z,10.90
2022-11-26T11:24:28.953Z,11.52
2022-11-26T11:30:34.882Z,10.10
2022-11-26T11:36:37.020Z,9.82
2022-11-26T11:42:40.487Z,10.52
2022-11-26T11:49:03.417Z,11.43
2022-11-26T11:55:36.594Z,11.25
2022-11-26T12:01:57.060Z,11.23
2022-11-26T12:08:21.900Z,11.18
2022-11-26T12:14:48.255Z,11.55
2022-11-26T12:20:55.359Z,9.70
2022-11-26T12:27:17.210Z,9.60
2022-11-26T12:33:27.368Z,8.38
2022-11-26T12:39:41.382Z,8.25
2022-11-26T12:45:53.264Z,9.00
2022-11-26T12:52:11.382Z,8.45
2022-11-26T12:58:39.145Z,8.45
2022-11-26T13:04:40.968Z,8.60
2022-11-26T13:11:10.493Z,7.57
2022-11-26T13:17:14.133Z,7.38
2022-11-26T13:23:32.845Z,7.10
2022-11-26T13:30:05.573Z,7.30
2022-11-26T13:37:04.776Z,7.55
2022-11-26T13:49:38.144Z,6.15
2022-11-26T13:56:01.309Z,7.38
2022-11-26T14:02:38.419Z,6.78
2022-11-26T14:08:49.203Z,7.13
2022-11-26T14:14:51.639Z,8.77
2022-11-26T14:21:03.903Z,6.55
2022-11-26T14:27:05.677Z,5.95
2022-11-26T14:33:17.576Z,5.45
2022-11-26T14:39:19.436Z,6.38
2022-11-26T14:45:24.128Z,7.78
2022-11-26T14:51:27.186Z,6.45
2022-11-26T14:57:55.318Z,6.20
2022-11-26T15:04:03.077Z,6.00
2022-11-26T15:10:20.667Z,5.32
2022-11-26T15:16:33.866Z,5.10
2022-11-26T15:22:39.997Z,5.28
2022-11-26T15:28:41.885Z,5.63
2022-11-26T15:34:43.906Z,6.97
2022-11-26T15:40:46.184Z,5.65
2022-11-26T15:46:51.218Z,5.53
2022-11-26T15:52:56.873Z,6.10
2022-11-26T15:59:02.884Z,6.25
2022-11-26T16:05:05.249Z,6.43
2022-11-26T16:11:09.418Z,9.18
2022-11-26T16:17:14.051Z,8.57
2022-11-26T16:23:29.429Z,9.30
2022-11-26T16:29:33.204Z,9.50
2022-11-26T16:35:50.424Z,10.20
2022-11-26T16:41:52.278Z,11.67
2022-11-26T16:54:21.947Z,10.00
2022-11-26T17:00:26.084Z,9.13
2022-11-26T17:06:36.362Z,9.45
2022-11-26T17:12:38.248Z,8.05
2022-11-26T17:18:40.384Z,9.02
2022-11-26T17:24:42.358Z,7.97
2022-11-26T17:30:45.114Z,8.30
2022-11-26T17:36:48.863Z,7.63
2022-11-26T17:42:51.195Z,8.75
2022-11-26T17:48:58.298Z,9.32
2022-11-26T17:55:01.697Z,10.10
2022-11-26T18:01:03.824Z,9.45
2022-11-26T18:07:14.857Z,11.10
2022-11-26T18:13:16.863Z,9.77
2022-11-26T18:19:20.451Z,10.38
2022-11-26T18:25:23.158Z,11.20
2022-11-26T18:31:25.529Z,10.73
2022-11-26T18:37:27.688Z,10.82
2022-11-26T18:43:31.112Z,11.65
2022-11-26T18:49:33.305Z,10.60
2022-11-26T18:55:35.166Z,11.68
2022-11-26T19:01:37.041Z,13.15
2022-11-26T19:07:39.070Z,13.52
2022-11-26T19:13:42.180Z,13.88
2022-11-26T19:19:44.025Z,13.77
2022-11-26T19:25:45.912Z,15.90
2022-11-26T19:31:47.723Z,15.70
2022-11-26T19:37:49.780Z,17.77
2022-11-26T19:43:51.827Z,17.30
2022-11-26T19:49:53.641Z,16.70
2022-11-26T19:56:04.523Z,16.15
2022-11-26T20:02:08.492Z,16.80
2022-11-26T20:08:11.110Z,17.25
2022-11-26T20:14:14.012Z,20.67
2022-11-26T20:20:16.082Z,20.42
2022-11-26T20:26:22.719Z,20.23
2022-11-26T20:32:24.610Z,20.75
2022-11-26T20:38:26.411Z,19.75
2022-11-26T20:44:28.626Z,19.27
2022-11-26T20:50:30.712Z,20.85
2022-11-26T20:56:33.141Z,19.58
2022-11-26T21:02:35.091Z,19.52
2022-11-26T21:08:36.963Z,19.33
2022-11-26T21:14:38.763Z,20.13
2022-11-26T21:20:41.962Z,23.35
2022-11-26T21:26:45.301Z,21.42
2022-11-26T21:32:47.101Z,24.48
2022-11-26T21:38:49.609Z,20.23
2022-11-26T21:44:51.443Z,21.17
2022-11-26T21:50:53.240Z,19.60
2022-11-26T21:56:55.081Z,19.15
2022-11-26T22:02:57.020Z,18.60
2022-11-26T22:08:59.278Z,18.02
2022-11-26T22:15:01.083Z,15.73
2022-11-26T22:21:03.434Z,16.33
2022-11-26T22:27:05.389Z,14.05
2022-11-26T22:33:07.341Z,13.98
2022-11-26T22:39:12.873Z,13.68
2022-11-26T22:45:14.869Z,13.88
2022-11-26T22:51:17.146Z,15.50
2022-11-26T22:57:23.882Z,14.60
2022-11-26T23:03:29.172Z,15.48
2022-11-26T23:09:31.060Z,14.55
2022-11-26T23:15:33.251Z,14.98
2022-11-26T23:21:42.739Z,15.40
2022-11-26T23:27:45.605Z,15.85
2022-11-26T23:33:48.488Z,14.98
2022-11-26T23:39:50.814Z,15.32
2022-11-26T23:46:20.604Z,14.93
2022-11-26T23:52:22.569Z,14.77
2022-11-26T23:58:24.391Z,14.27
